Time;durP1;ratioP1;P1;durP2;ratioP2;P2;SDS_P1;SDS_P2;PMS_P1;PMS_P2;Temp;Humidity;BMP_temperature;BMP_pressure;BME280_temperature;BME280_humidity;BME280_pressure;Samples;Min_cycle;Max_cycle;Signal;HPM_P1;HPM_P2
2022/09/19 00:00:26;;;;;;;0.47;0.30;;;12.60;99.90;;;;;;6234935;22;20031;-77
2022/09/19 00:02:52;;;;;;;0.68;0.13;;;12.60;99.90;;;;;;6234969;22;20011;-76
2022/09/19 00:05:17;;;;;;;0.10;0.10;;;12.60;99.90;;;;;;6258844;22;20011;-76
2022/09/19 00:07:47;;;;;;;0.10;0.10;;;12.50;99.90;;;;;;6260155;22;20019;-76
2022/09/19 00:10:13;;;;;;;0.40;0.13;;;12.50;99.90;;;;;;6264115;22;20012;-76
2022/09/19 00:12:38;;;;;;;0.90;0.22;;;12.50;99.90;;;;;;6259932;22;20091;-77
2022/09/19 00:15:04;;;;;;;0.95;0.22;;;12.50;99.90;;;;;;6262968;22;20447;-75
2022/09/19 00:17:30;;;;;;;0.15;0.10;;;12.50;99.90;;;;;;6264944;22;20008;-76
2022/09/19 00:19:56;;;;;;;0.55;0.20;;;12.50;99.90;;;;;;6261610;22;20102;-74
2022/09/19 00:22:21;;;;;;;0.57;0.20;;;12.50;99.90;;;;;;6262917;22;20043;-75
2022/09/19 00:24:49;;;;;;;0.40;0.20;;;12.50;99.90;;;;;;6263079;22;20004;-75
2022/09/19 00:27:25;;;;;;;0.80;0.30;;;12.50;99.90;;;;;;6264691;22;20019;-75
2022/09/19 00:29:52;;;;;;;1.02;0.17;;;12.40;99.90;;;;;;6265661;22;20012;-71
2022/09/19 00:32:19;;;;;;;0.28;0.20;;;12.40;99.90;;;;;;6265110;22;19999;-72
2022/09/19 00:34:47;;;;;;;1.02;0.10;;;12.50;99.90;;;;;;6265424;22;20078;-72
2022/09/19 00:37:14;;;;;;;0.90;0.10;;;12.50;99.90;;;;;;6260092;22;20015;-72
2022/09/19 00:39:41;;;;;;;0.30;0.10;;;12.40;99.90;;;;;;6265111;22;20491;-71
2022/09/19 00:42:15;;;;;;;0.20;0.20;;;12.50;99.90;;;;;;6263277;22;20084;-71
2022/09/19 00:44:41;;;;;;;0.20;0.20;;;12.50;99.90;;;;;;6265942;22;19999;-71
2022/09/19 00:47:17;;;;;;;1.33;0.13;;;12.50;99.90;;;;;;6266131;22;20000;-75
2022/09/19 00:49:48;;;;;;;0.50;0.20;;;12.50;99.90;;;;;;6266272;22;20095;-75
2022/09/19 00:52:18;;;;;;;0.10;0.10;;;12.50;99.90;;;;;;6263511;22;20011;-75
2022/09/19 00:54:45;;;;;;;0.30;0.10;;;12.60;99.90;;;;;;6264547;22;20004;-74
2022/09/19 00:57:14;;;;;;;1.35;0.30;;;12.60;99.90;;;;;;6263581;22;20566;-73
2022/09/19 00:59:43;;;;;;;0.57;0.20;;;12.60;99.90;;;;;;6266154;22;20003;-75
2022/09/19 01:02:09;;;;;;;0.45;0.20;;;12.60;99.90;;;;;;6262908;22;20126;-74
2022/09/19 01:04:36;;;;;;;0.60;0.20;;;12.60;99.90;;;;;;6262163;22;20341;-74
2022/09/19 01:07:28;;;;;;;3.15;0.22;;;12.60;99.90;;;;;;6255256;22;20011;-71
2022/09/19 01:10:03;;;;;;;0.22;0.15;;;12.50;99.90;;;;;;6263977;22;20031;-72
2022/09/19 01:12:51;;;;;;;0.10;0.10;;;12.50;99.90;;;;;;6262937;22;20010;-72
2022/09/19 01:15:30;;;;;;;0.17;0.17;;;12.50;99.90;;;;;;6263088;22;20029;-72
2022/09/19 01:17:59;;;;;;;0.30;0.22;;;12.50;99.90;;;;;;6262102;22;20373;-72
2022/09/19 01:20:56;;;;;;;0.43;0.13;;;12.50;99.90;;;;;;6263769;22;20011;-72
2022/09/19 01:23:21;;;;;;;0.32;0.10;;;12.50;99.90;;;;;;6263338;22;20133;-71
2022/09/19 01:25:52;;;;;;;1.13;0.35;;;12.50;99.90;;;;;;6262833;22;20467;-72
2022/09/19 01:28:30;;;;;;;0.10;0.10;;;12.40;99.90;;;;;;6264722;22;20463;-73
2022/09/19 01:31:18;;;;;;;0.40;0.20;;;12.40;99.90;;;;;;6264843;22;20004;-71
2022/09/19 01:34:11;;;;;;;0.70;0.40;;;12.30;99.90;;;;;;6263178;22;20007;-73
2022/09/19 01:36:48;;;;;;;0.13;0.00;;;12.30;99.90;;;;;;6259324;22;20342;-72
2022/09/19 01:39:21;;;;;;;0.32;0.10;;;12.30;99.90;;;;;;6258521;22;20000;-72
2022/09/19 01:41:51;;;;;;;0.50;0.20;;;12.30;99.90;;;;;;6262463;22;20050;-72
2022/09/19 01:44:19;;;;;;;0.70;0.30;;;12.30;99.90;;;;;;6264982;22;20078;-72
2022/09/19 01:47:13;;;;;;;0.20;0.20;;;12.20;99.90;;;;;;6263695;22;20083;-72
2022/09/19 01:50:14;;;;;;;1.40;0.15;;;12.20;99.90;;;;;;6264291;22;20004;-72
2022/09/19 01:52:49;;;;;;;0.90;0.20;;;12.30;99.90;;;;;;6261066;22;20042;-73
2022/09/19 01:55:26;;;;;;;0.20;0.20;;;12.30;99.90;;;;;;6235521;22;20016;-73
2022/09/19 01:58:17;;;;;;;1.08;0.20;;;12.30;99.90;;;;;;6263939;22;20372;-70
2022/09/19 02:00:52;;;;;;;1.80;0.10;;;12.30;99.90;;;;;;6261090;22;20022;-71
2022/09/19 02:03:29;;;;;;;0.85;0.10;;;12.30;99.90;;;;;;6263079;22;20083;-72
2022/09/19 02:06:06;;;;;;;2.42;0.20;;;12.30;99.90;;;;;;6261071;22;20018;-72
2022/09/19 02:08:35;;;;;;;0.68;0.20;;;12.30;99.90;;;;;;6257282;22;20016;-71
2022/09/19 02:11:27;;;;;;;0.20;0.05;;;12.20;99.90;;;;;;6261241;22;20314;-70
2022/09/19 02:14:10;;;;;;;0.30;0.28;;;12.20;99.90;;;;;;6256796;22;20008;-71
2022/09/19 02:16:47;;;;;;;0.40;0.20;;;12.20;99.90;;;;;;6264160;22;20337;-71
2022/09/19 02:19:28;;;;;;;0.73;0.20;;;12.20;99.90;;;;;;6264227;22;20004;-71
2022/09/19 02:22:01;;;;;;;4.00;0.28;;;12.30;99.90;;;;;;6262090;22;20438;-71
2022/09/19 02:24:30;;;;;;;0.75;0.30;;;12.30;99.90;;;;;;6264700;22;19996;-72
2022/09/19 02:27:09;;;;;;;0.80;0.38;;;12.30;99.90;;;;;;6261289;22;20774;-72
2022/09/19 02:29:48;;;;;;;0.52;0.20;;;12.20;99.90;;;;;;6265811;22;20011;-71
2022/09/19 02:32:16;;;;;;;0.95;0.38;;;12.20;99.90;;;;;;6264262;22;20011;-70
2022/09/19 02:34:41;;;;;;;0.20;0.20;;;12.10;99.90;;;;;;6265412;22;20443;-71
2022/09/19 02:37:12;;;;;;;1.23;0.30;;;12.00;99.90;;;;;;6262141;22;20020;-71
2022/09/19 02:39:49;;;;;;;0.93;0.10;;;12.00;99.90;;;;;;6260655;22;20116;-71
2022/09/19 02:42:30;;;;;;;2.35;0.30;;;11.90;99.90;;;;;;6262440;22;20007;-76
2022/09/19 02:45:16;;;;;;;0.52;0.20;;;11.80;99.90;;;;;;6266391;22;20034;-75
2022/09/19 02:47:56;;;;;;;0.43;0.20;;;11.70;99.90;;;;;;6261277;22;20012;-79
2022/09/19 02:50:59;;;;;;;0.10;0.10;;;11.80;99.90;;;;;;6264915;22;20004;-75
2022/09/19 02:53:29;;;;;;;1.30;0.20;;;11.80;99.90;;;;;;6258489;22;20149;-76
2022/09/19 02:55:58;;;;;;;0.17;0.10;;;11.70;99.90;;;;;;6263097;22;20016;-77
2022/09/19 02:58:27;;;;;;;3.17;0.28;;;11.60;99.90;;;;;;6264305;22;20004;-73
2022/09/19 03:00:59;;;;;;;0.30;0.13;;;11.60;99.90;;;;;;6265137;22;20011;-73
2022/09/19 03:06:17;;;;;;;1.00;0.10;;;11.60;99.90;;;;;;6263680;22;20796;-71
2022/09/19 03:08:46;;;;;;;0.38;0.10;;;11.60;99.90;;;;;;6258294;22;20018;-70
2022/09/19 03:11:15;;;;;;;0.47;0.30;;;11.60;99.90;;;;;;6261327;22;20004;-71
2022/09/19 03:13:42;;;;;;;0.35;0.17;;;11.50;99.90;;;;;;6262644;22;20027;-71
2022/09/19 03:16:13;;;;;;;0.28;0.10;;;11.50;99.90;;;;;;6263172;22;20083;-71
2022/09/19 03:18:42;;;;;;;0.17;0.10;;;11.50;99.90;;;;;;6236992;22;20007;-70
2022/09/19 03:21:10;;;;;;;0.40;0.30;;;11.40;99.90;;;;;;6263479;22;20063;-71
2022/09/19 03:23:36;;;;;;;1.15;0.22;;;11.40;99.90;;;;;;6260629;22;20011;-71
2022/09/19 03:26:02;;;;;;;0.60;0.28;;;11.30;99.90;;;;;;6259702;22;20004;-70
2022/09/19 03:28:28;;;;;;;2.17;0.43;;;11.40;99.90;;;;;;6262588;22;20007;-71
2022/09/19 03:30:59;;;;;;;1.85;0.20;;;11.40;99.90;;;;;;6264905;22;20014;-70
2022/09/19 03:33:25;;;;;;;4.55;0.30;;;11.40;99.90;;;;;;6265108;22;20484;-71
2022/09/19 03:35:51;;;;;;;1.10;0.17;;;11.40;99.90;;;;;;6266283;22;20659;-71
2022/09/19 03:38:17;;;;;;;1.42;0.32;;;11.50;99.90;;;;;;6263363;22;20040;-71
2022/09/19 03:40:43;;;;;;;1.05;0.30;;;11.50;99.90;;;;;;6260866;22;20060;-71
2022/09/19 03:43:08;;;;;;;1.85;0.30;;;11.40;99.90;;;;;;6263414;22;20510;-71
2022/09/19 03:45:34;;;;;;;0.30;0.20;;;11.40;99.90;;;;;;6264729;22;20671;-71
2022/09/19 03:48:00;;;;;;;0.63;0.22;;;11.40;99.90;;;;;;6263853;22;20000;-71
2022/09/19 03:50:25;;;;;;;0.57;0.10;;;11.40;99.90;;;;;;6265481;22;20014;-72
2022/09/19 03:52:51;;;;;;;0.77;0.20;;;11.30;99.90;;;;;;6265146;22;20000;-73
2022/09/19 03:55:17;;;;;;;0.30;0.28;;;11.30;99.90;;;;;;6263943;22;20007;-72
2022/09/19 03:57:43;;;;;;;0.25;0.20;;;11.20;99.90;;;;;;6264860;22;20015;-78
2022/09/19 04:00:09;;;;;;;0.38;0.10;;;11.20;99.90;;;;;;6264704;22;20233;-78
2022/09/19 04:02:35;;;;;;;0.75;0.28;;;11.20;99.90;;;;;;6261093;22;20645;-78
2022/09/19 04:05:02;;;;;;;0.10;0.10;;;11.10;99.90;;;;;;6263976;22;20000;-76
2022/09/19 04:07:28;;;;;;;0.63;0.22;;;11.10;99.90;;;;;;6264242;22;20027;-78
2022/09/19 04:09:56;;;;;;;0.30;0.20;;;11.00;99.90;;;;;;6260363;22;20645;-75
2022/09/19 04:12:23;;;;;;;0.95;0.30;;;11.00;99.90;;;;;;6234339;22;20098;-78
2022/09/19 04:14:49;;;;;;;0.32;0.20;;;11.00;99.90;;;;;;6264899;22;19999;-74
2022/09/19 04:17:15;;;;;;;0.32;0.20;;;11.00;99.90;;;;;;6263513;22;20069;-77
2022/09/19 04:19:42;;;;;;;1.77;0.35;;;11.00;99.90;;;;;;6266790;22;19999;-79
2022/09/19 04:22:11;;;;;;;2.38;0.40;;;11.00;99.90;;;;;;6265877;22;20332;-78
2022/09/19 04:24:39;;;;;;;0.45;0.30;;;11.00;99.90;;;;;;6266242;22;20007;-79
2022/09/19 04:27:08;;;;;;;0.20;0.20;;;11.00;99.90;;;;;;6260381;22;20007;-80
2022/09/19 04:29:35;;;;;;;0.70;0.30;;;11.00;99.90;;;;;;6263494;22;20008;-78
2022/09/19 04:32:02;;;;;;;3.53;0.40;;;11.00;99.90;;;;;;6263147;22;20000;-79
2022/09/19 04:34:28;;;;;;;0.43;0.40;;;11.00;99.90;;;;;;6265122;22;20073;-80
2022/09/19 04:36:56;;;;;;;1.83;0.50;;;10.90;99.90;;;;;;6263458;22;20053;-78
2022/09/19 04:39:22;;;;;;;0.75;0.25;;;10.90;99.90;;;;;;6264714;22;20049;-79
2022/09/19 04:41:52;;;;;;;2.50;0.40;;;11.00;99.90;;;;;;6261883;22;20026;-76
2022/09/19 04:44:18;;;;;;;1.55;0.80;;;10.90;99.90;;;;;;6264786;22;19996;-78
2022/09/19 04:46:46;;;;;;;1.77;0.60;;;10.90;99.90;;;;;;6263071;22;20008;-79
2022/09/19 04:49:13;;;;;;;1.83;0.30;;;10.90;99.90;;;;;;6265591;22;20003;-77
2022/09/19 04:51:39;;;;;;;1.20;0.40;;;11.00;99.90;;;;;;6263666;22;20011;-76
2022/09/19 04:54:06;;;;;;;2.25;0.50;;;11.00;99.90;;;;;;6264523;22;20098;-77
2022/09/19 04:56:32;;;;;;;2.95;0.70;;;11.00;99.90;;;;;;6264014;22;20015;-75
2022/09/19 04:58:59;;;;;;;0.77;0.35;;;11.00;99.90;;;;;;6263114;22;20006;-75
2022/09/19 05:01:25;;;;;;;0.40;0.15;;;11.00;99.90;;;;;;6261686;22;20000;-73
2022/09/19 05:03:51;;;;;;;0.30;0.20;;;10.90;99.90;;;;;;6264021;22;20133;-73
2022/09/19 05:06:17;;;;;;;0.85;0.38;;;10.90;99.90;;;;;;6264931;22;20032;-76
2022/09/19 05:08:43;;;;;;;0.25;0.17;;;10.90;99.90;;;;;;6264133;22;20031;-75
2022/09/19 05:11:10;;;;;;;0.80;0.43;;;10.80;99.90;;;;;;6260558;22;20012;-73
2022/09/19 05:13:40;;;;;;;0.68;0.30;;;10.70;99.90;;;;;;6263402;22;20004;-75
2022/09/19 05:16:07;;;;;;;0.50;0.20;;;10.70;99.90;;;;;;6260959;22;20012;-77
2022/09/19 05:18:35;;;;;;;1.08;0.28;;;10.70;99.90;;;;;;6234136;22;20042;-79
2022/09/19 05:21:10;;;;;;;2.70;0.70;;;10.70;99.90;;;;;;6261591;22;20008;-82
2022/09/19 05:23:37;;;;;;;1.55;0.40;;;10.80;99.90;;;;;;6264101;22;19996;-76
2022/09/19 05:26:05;;;;;;;1.95;0.60;;;10.80;99.90;;;;;;6262451;22;20454;-73
2022/09/19 05:28:30;;;;;;;2.05;0.60;;;10.80;99.90;;;;;;6266103;22;20026;-72
2022/09/19 05:30:56;;;;;;;1.42;0.50;;;10.80;99.90;;;;;;6262251;22;20079;-71
2022/09/19 05:33:28;;;;;;;2.45;0.63;;;10.80;99.90;;;;;;6266557;22;20000;-72
2022/09/19 05:35:55;;;;;;;;;;;10.90;99.90;;;;;;6263819;22;20011;-76
2022/09/19 05:38:22;;;;;;;0.25;0.20;;;10.80;99.90;;;;;;6266100;22;19903;-73
2022/09/19 05:40:51;;;;;;;2.22;0.30;;;10.70;99.90;;;;;;6260588;22;20599;-74
2022/09/19 05:43:17;;;;;;;2.40;0.45;;;10.70;99.90;;;;;;6261571;22;20011;-69
2022/09/19 05:45:42;;;;;;;0.50;0.40;;;10.70;99.90;;;;;;6263254;22;20032;-75
2022/09/19 05:48:08;;;;;;;0.63;0.38;;;10.80;99.90;;;;;;6261950;22;20058;-76
2022/09/19 05:50:34;;;;;;;0.55;0.20;;;10.90;99.90;;;;;;6267917;22;20084;-76
2022/09/19 05:55:45;;;;;;;1.13;0.20;;;10.80;99.90;;;;;;6265180;22;20038;-76
2022/09/19 05:58:16;;;;;;;0.30;0.25;;;10.70;99.90;;;;;;6267058;22;20034;-77
2022/09/19 06:00:43;;;;;;;0.65;0.20;;;10.80;99.90;;;;;;6263370;22;20083;-78
2022/09/19 06:03:13;;;;;;;0.40;0.10;;;10.80;99.90;;;;;;6266469;22;20006;-75
2022/09/19 06:05:43;;;;;;;0.35;0.20;;;10.80;99.90;;;;;;6265776;22;20027;-76
2022/09/19 06:08:08;;;;;;;0.63;0.20;;;10.80;99.90;;;;;;6266705;22;20031;-76
2022/09/19 06:10:38;;;;;;;0.50;0.35;;;10.80;99.90;;;;;;6239757;22;20027;-75
2022/09/19 06:13:04;;;;;;;0.38;0.10;;;10.80;99.90;;;;;;6260930;22;20115;-76
2022/09/19 06:15:30;;;;;;;0.55;0.20;;;10.80;99.90;;;;;;6266964;22;20079;-76
2022/09/19 06:17:57;;;;;;;0.32;0.20;;;10.80;99.90;;;;;;6265756;22;20035;-76
2022/09/19 06:20:23;;;;;;;0.10;0.10;;;11.00;99.90;;;;;;6267150;22;20031;-77
2022/09/19 06:22:50;;;;;;;0.43;0.20;;;11.10;99.90;;;;;;6266310;22;20432;-77
2022/09/19 06:25:16;;;;;;;0.55;0.10;;;11.20;99.90;;;;;;6266448;22;20002;-75
2022/09/19 06:27:46;;;;;;;1.23;0.20;;;11.30;99.90;;;;;;6264750;22;20043;-77
2022/09/19 06:30:12;;;;;;;0.43;0.10;;;11.20;99.90;;;;;;6265616;22;20057;-75
2022/09/19 06:32:38;;;;;;;0.38;0.10;;;11.20;99.90;;;;;;6265693;22;20004;-75
2022/09/19 06:35:05;;;;;;;0.43;0.20;;;11.20;99.90;;;;;;6266752;22;20008;-75
2022/09/19 06:37:30;;;;;;;0.25;0.13;;;11.30;99.90;;;;;;6267294;22;20011;-75
2022/09/19 06:39:56;;;;;;;0.38;0.20;;;11.40;99.90;;;;;;6265311;22;20000;-76
2022/09/19 06:42:22;;;;;;;0.50;0.20;;;11.40;99.90;;;;;;6236002;22;20102;-75
2022/09/19 06:44:47;;;;;;;0.28;0.20;;;11.40;99.90;;;;;;6265296;22;20035;-76
2022/09/19 06:47:13;;;;;;;0.52;0.20;;;11.50;99.90;;;;;;6266018;22;20092;-75
2022/09/19 06:49:39;;;;;;;0.10;0.10;;;11.50;99.90;;;;;;6267351;22;20006;-76
2022/09/19 06:52:04;;;;;;;1.10;0.40;;;11.60;99.90;;;;;;6265696;22;20007;-75
2022/09/19 06:54:31;;;;;;;0.17;0.13;;;11.50;99.90;;;;;;6238852;22;20094;-75
2022/09/19 06:56:56;;;;;;;0.75;0.20;;;11.50;99.90;;;;;;6265558;22;20019;-75
2022/09/19 06:59:22;;;;;;;0.40;0.20;;;11.60;99.90;;;;;;6265274;22;19999;-75
2022/09/19 07:01:47;;;;;;;0.95;0.20;;;11.60;99.90;;;;;;6262193;22;20007;-76
2022/09/19 07:04:13;;;;;;;0.35;0.10;;;11.50;99.90;;;;;;6266356;22;20433;-73
2022/09/19 07:06:39;;;;;;;0.20;0.17;;;11.50;99.90;;;;;;6265166;22;20027;-76
2022/09/19 07:09:08;;;;;;;0.10;0.00;;;11.50;99.90;;;;;;6263889;22;20016;-72
2022/09/19 07:11:35;;;;;;;0.65;0.30;;;11.50;99.90;;;;;;6260993;22;20452;-75
2022/09/19 07:14:02;;;;;;;0.77;0.15;;;11.50;99.90;;;;;;6260948;22;20532;-73
2022/09/19 07:16:27;;;;;;;0.52;0.20;;;11.50;99.90;;;;;;6264888;22;20011;-73
2022/09/19 07:18:53;;;;;;;0.10;0.10;;;11.60;99.90;;;;;;6261308;22;20015;-75
2022/09/19 07:21:19;;;;;;;0.22;0.10;;;11.50;99.90;;;;;;6262325;22;20011;-74
2022/09/19 07:23:45;;;;;;;0.85;0.13;;;11.60;99.90;;;;;;6263086;22;20027;-75
2022/09/19 07:26:11;;;;;;;0.00;0.00;;;11.60;99.90;;;;;;6263890;22;20000;-75
2022/09/19 07:28:37;;;;;;;0.30;0.10;;;11.70;99.90;;;;;;6265146;22;20008;-72
2022/09/19 07:31:02;;;;;;;0.10;0.10;;;11.60;99.90;;;;;;6263801;22;20434;-74
2022/09/19 07:33:30;;;;;;;0.63;0.20;;;11.50;99.90;;;;;;6265848;22;20837;-73
2022/09/19 07:35:56;;;;;;;0.28;0.10;;;11.50;99.90;;;;;;6264347;22;20043;-74
2022/09/19 07:38:24;;;;;;;0.20;0.13;;;11.40;99.90;;;;;;6262831;22;20000;-74
2022/09/19 07:40:50;;;;;;;0.35;0.20;;;11.40;99.90;;;;;;6261983;22;20091;-76
2022/09/19 07:43:16;;;;;;;1.45;0.00;;;11.50;99.90;;;;;;6260980;22;20008;-74
2022/09/19 07:45:47;;;;;;;0.08;0.08;;;11.60;99.90;;;;;;6255740;22;20376;-73
2022/09/19 07:48:14;;;;;;;0.17;0.10;;;11.80;99.90;;;;;;6258034;22;20019;-74
2022/09/19 07:50:40;;;;;;;0.10;0.10;;;11.90;99.90;;;;;;6254694;22;20011;-75
2022/09/19 07:53:26;;;;;;;0.13;0.00;;;12.00;99.90;;;;;;6260318;22;19999;-73
2022/09/19 07:55:53;;;;;;;0.10;0.10;;;12.20;99.90;;;;;;6256656;22;20214;-74
2022/09/19 07:58:21;;;;;;;0.35;0.10;;;12.30;99.90;;;;;;6254450;22;20042;-74
2022/09/19 08:00:48;;;;;;;0.05;0.00;;;12.30;99.90;;;;;;6229098;22;20039;-72
2022/09/19 08:03:15;;;;;;;0.13;0.10;;;12.20;99.90;;;;;;6259018;22;20010;-73
2022/09/19 08:05:43;;;;;;;1.55;0.10;;;12.00;99.90;;;;;;6259272;22;20712;-72
2022/09/19 08:08:11;;;;;;;0.20;0.10;;;11.80;99.90;;;;;;6213703;22;1106136;-73
2022/09/19 08:10:39;;;;;;;1.02;0.20;;;11.70;99.90;;;;;;6266168;22;20007;-74
2022/09/19 08:13:07;;;;;;;0.00;0.00;;;11.50;99.90;;;;;;6263951;22;20038;-72
2022/09/19 08:15:34;;;;;;;0.00;0.00;;;11.60;99.90;;;;;;6262336;22;20007;-73
2022/09/19 08:18:02;;;;;;;0.75;0.10;;;11.70;99.90;;;;;;6262564;22;20008;-73
2022/09/19 08:20:31;;;;;;;0.00;0.00;;;11.80;99.90;;;;;;6266257;22;20000;-74
2022/09/19 08:22:59;;;;;;;0.43;0.00;;;12.00;99.90;;;;;;6264355;22;20095;-74
2022/09/19 08:25:25;;;;;;;0.15;0.00;;;12.20;99.90;;;;;;6264125;22;20841;-73
2022/09/19 08:27:51;;;;;;;0.38;0.10;;;12.30;99.90;;;;;;6262993;22;20023;-74
2022/09/19 08:30:20;;;;;;;0.00;0.00;;;12.30;99.90;;;;;;6262996;22;20010;-74
2022/09/19 08:32:47;;;;;;;0.45;0.10;;;12.40;99.90;;;;;;6262764;22;20167;-75
2022/09/19 08:35:14;;;;;;;1.85;0.00;;;12.40;99.90;;;;;;6259172;22;20554;-75
2022/09/19 08:37:39;;;;;;;0.17;0.00;;;12.30;99.90;;;;;;6258811;22;20020;-76
2022/09/19 08:40:18;;;;;;;0.10;0.10;;;12.30;99.90;;;;;;6261789;22;20065;-76
2022/09/19 08:43:09;;;;;;;0.30;0.10;;;12.20;99.90;;;;;;6263536;22;20022;-75
2022/09/19 08:46:10;;;;;;;0.00;0.00;;;12.10;99.90;;;;;;6239546;22;20011;-75
2022/09/19 08:48:42;;;;;;;0.00;0.00;;;12.00;99.90;;;;;;6202462;22;20016;-76
2022/09/19 08:51:20;;;;;;;0.10;0.00;;;12.00;99.90;;;;;;6264107;22;20046;-77
2022/09/19 08:54:03;;;;;;;0.30;0.10;;;12.20;99.90;;;;;;6264266;22;20069;-74
2022/09/19 08:56:30;;;;;;;0.03;0.00;;;12.20;99.90;;;;;;6262974;22;20016;-77
2022/09/19 08:59:07;;;;;;;0.00;0.00;;;12.10;99.90;;;;;;6234875;22;20073;-74
2022/09/19 09:01:36;;;;;;;0.10;0.10;;;12.10;99.90;;;;;;6265514;22;20074;-74
2022/09/19 09:04:11;;;;;;;0.10;0.10;;;12.10;99.90;;;;;;6264429;22;20003;-73
2022/09/19 09:06:58;;;;;;;0.70;0.10;;;12.10;99.90;;;;;;6261043;22;20425;-74
2022/09/19 09:09:52;;;;;;;0.52;0.13;;;12.10;99.90;;;;;;6236539;22;20531;-74
2022/09/19 09:12:40;;;;;;;0.00;0.00;;;12.10;99.90;;;;;;6264892;22;20023;-74
2022/09/19 09:15:24;;;;;;;1.02;0.10;;;12.10;99.90;;;;;;6260874;22;20101;-75
2022/09/19 09:18:18;;;;;;;0.30;0.10;;;12.10;99.90;;;;;;6263162;22;20012;-73
2022/09/19 09:21:07;;;;;;;1.02;0.00;;;12.20;99.90;;;;;;6263819;22;20053;-75
2022/09/19 09:23:33;;;;;;;0.30;0.10;;;12.10;99.90;;;;;;6264420;22;20506;-73
2022/09/19 09:26:05;;;;;;;0.10;0.00;;;12.00;99.90;;;;;;6263878;22;20023;-72
2022/09/19 09:28:53;;;;;;;0.88;0.03;;;12.10;99.90;;;;;;6266974;22;20003;-73
2022/09/19 09:31:40;;;;;;;0.00;0.00;;;12.20;99.90;;;;;;6266942;22;20345;-73
2022/09/19 09:34:18;;;;;;;0.35;0.00;;;12.50;99.90;;;;;;6266060;22;20007;-71
2022/09/19 09:37:03;;;;;;;0.57;0.10;;;12.80;99.90;;;;;;6264809;22;20022;-73
2022/09/19 09:40:09;;;;;;;0.10;0.03;;;12.90;99.90;;;;;;6268896;22;20476;-71
2022/09/19 09:42:46;;;;;;;0.10;0.00;;;13.10;99.90;;;;;;6262395;22;20380;-72
2022/09/19 09:45:36;;;;;;;0.38;0.10;;;13.30;99.90;;;;;;6238226;22;20054;-73
2022/09/19 09:48:26;;;;;;;0.30;0.22;;;13.30;99.90;;;;;;6268136;22;19999;-73
2022/09/19 09:51:09;;;;;;;0.45;0.10;;;13.20;99.90;;;;;;6267779;22;20006;-74
2022/09/19 09:53:53;;;;;;;;;;;13.10;99.90;;;;;;6269003;22;20031;-72
2022/09/19 09:56:32;;;;;;;0.85;0.10;;;13.00;99.90;;;;;;6266457;22;19996;-72
2022/09/19 09:58:57;;;;;;;0.50;0.30;;;12.90;99.90;;;;;;6267172;22;20004;-72
2022/09/19 10:04:34;;;;;;;0.43;0.10;;;12.60;99.90;;;;;;6240133;22;20007;-70
2022/09/19 10:07:31;;;;;;;0.28;0.03;;;12.80;99.90;;;;;;6264671;22;20512;-70
2022/09/19 10:10:03;;;;;;;0.40;0.00;;;13.10;99.90;;;;;;6265170;22;20020;-73
2022/09/19 10:12:40;;;;;;;0.10;0.00;;;13.30;99.90;;;;;;6266781;22;20015;-72
2022/09/19 10:15:16;;;;;;;0.10;0.00;;;13.50;99.90;;;;;;6262135;22;20007;-72
2022/09/19 10:17:53;;;;;;;0.10;0.10;;;13.50;99.90;;;;;;6273663;22;20015;-71
2022/09/19 10:20:29;;;;;;;0.10;0.10;;;13.60;99.90;;;;;;6278904;22;19999;-71
2022/09/19 10:22:54;;;;;;;0.43;0.08;;;13.70;99.90;;;;;;6279132;22;20092;-71
2022/09/19 10:25:20;;;;;;;0.17;0.00;;;13.60;99.90;;;;;;6278157;22;20000;-72
2022/09/19 10:27:49;;;;;;;0.30;0.05;;;13.60;99.90;;;;;;6277740;22;20003;-71
2022/09/19 10:30:18;;;;;;;0.30;0.10;;;13.60;99.90;;;;;;6276188;22;20532;-72
2022/09/19 10:32:44;;;;;;;0.00;0.00;;;13.50;99.90;;;;;;6277234;22;20000;-72
2022/09/19 10:35:28;;;;;;;1.85;0.10;;;13.30;99.90;;;;;;6277924;22;20054;-73
2022/09/19 10:38:07;;;;;;;0.60;0.00;;;13.40;99.90;;;;;;6273821;22;20037;-72
2022/09/19 10:40:33;;;;;;;0.88;0.10;;;13.50;99.90;;;;;;6274714;22;20000;-73
2022/09/19 10:43:01;;;;;;;0.55;0.20;;;13.60;99.90;;;;;;6277904;22;20022;-74
2022/09/19 10:45:36;;;;;;;0.55;0.10;;;13.80;99.90;;;;;;6278798;22;20019;-74
2022/09/19 10:48:17;;;;;;;0.35;0.35;;;13.70;99.90;;;;;;6275004;22;20008;-75
2022/09/19 10:50:47;;;;;;;1.00;0.00;;;13.60;99.90;;;;;;6252161;22;20112;-74
2022/09/19 10:53:30;;;;;;;0.50;0.40;;;13.40;99.90;;;;;;6277789;22;20214;-75
2022/09/19 10:55:58;;;;;;;;;;;13.30;99.90;;;;;;6274747;22;20018;-73
2022/09/19 10:58:29;;;;;;;1.20;0.03;;;13.20;99.90;;;;;;6274667;22;19907;-72
2022/09/19 11:00:56;;;;;;;0.00;0.00;;;13.20;99.90;;;;;;6265374;22;20007;-71
2022/09/19 11:03:32;;;;;;;0.10;0.00;;;13.20;99.90;;;;;;6261931;22;20574;-73
2022/09/19 11:06:13;;;;;;;0.00;0.00;;;13.10;99.90;;;;;;6262256;22;20007;-73
2022/09/19 11:08:43;;;;;;;1.65;0.00;;;13.00;99.90;;;;;;6264677;22;20073;-73
2022/09/19 11:11:40;;;;;;;0.10;0.00;;;13.10;99.90;;;;;;6266639;22;20063;-71
2022/09/19 11:14:38;;;;;;;1.08;0.00;;;13.20;99.90;;;;;;6266653;22;20038;-72
2022/09/19 11:17:31;;;;;;;0.00;0.00;;;12.80;99.90;;;;;;6266978;22;20332;-74
2022/09/19 11:20:18;;;;;;;0.80;0.10;;;12.60;99.90;;;;;;6238968;22;20016;-74
2022/09/19 11:23:16;;;;;;;0.03;0.00;;;12.60;99.90;;;;;;6263654;22;20008;-76
2022/09/19 11:26:03;;;;;;;0.30;0.00;;;12.60;99.90;;;;;;6264688;22;20384;-74
2022/09/19 11:28:59;;;;;;;0.00;0.00;;;12.70;99.90;;;;;;6265874;22;20004;-74
2022/09/19 11:31:37;;;;;;;0.68;0.00;;;13.00;99.90;;;;;;6265622;22;20004;-74
2022/09/19 11:34:19;;;;;;;0.45;0.08;;;13.20;99.90;;;;;;6266021;22;20078;-74
2022/09/19 11:37:16;;;;;;;0.10;0.00;;;13.30;99.90;;;;;;6258745;22;20012;-72
2022/09/19 11:40:02;;;;;;;4.03;0.10;;;13.40;99.90;;;;;;6263302;22;20331;-76
2022/09/19 11:42:49;;;;;;;0.17;0.00;;;13.30;99.90;;;;;;6264774;22;20022;-73
2022/09/19 11:45:19;;;;;;;0.43;0.00;;;13.00;99.90;;;;;;6266140;22;20010;-71
2022/09/19 11:48:00;;;;;;;0.35;0.05;;;12.80;99.90;;;;;;6261637;22;20035;-71
2022/09/19 11:50:50;;;;;;;0.40;0.00;;;12.50;99.90;;;;;;6264064;22;20147;-72
2022/09/19 11:53:35;;;;;;;0.00;0.00;;;12.50;99.90;;;;;;6237478;22;20373;-73
2022/09/19 11:56:07;;;;;;;0.00;0.00;;;12.60;99.90;;;;;;6265461;22;20070;-74
2022/09/19 11:58:55;;;;;;;0.20;0.10;;;12.70;99.90;;;;;;6265838;22;20053;-73
2022/09/19 12:01:40;;;;;;;0.75;0.00;;;12.80;99.90;;;;;;6262681;22;20026;-73
2022/09/19 12:04:48;;;;;;;0.25;0.00;;;13.00;99.90;;;;;;6237290;22;20057;-73
2022/09/19 12:07:14;;;;;;;0.00;0.00;;;13.20;99.90;;;;;;6206103;22;20476;-74
2022/09/19 12:09:40;;;;;;;0.00;0.00;;;13.30;99.90;;;;;;6264464;22;20020;-73
2022/09/19 12:12:11;;;;;;;2.35;0.00;;;13.40;99.90;;;;;;6263612;22;20010;-72
2022/09/19 12:14:47;;;;;;;0.03;0.00;;;13.60;99.90;;;;;;6264805;22;20031;-73
2022/09/19 12:17:24;;;;;;;0.68;0.05;;;13.50;99.90;;;;;;6236853;22;20031;-72
2022/09/19 12:20:17;;;;;;;0.10;0.00;;;13.30;99.90;;;;;;6259454;22;20520;-74
2022/09/19 12:22:54;;;;;;;0.80;0.00;;;13.20;99.90;;;;;;6262545;22;20003;-74
2022/09/19 12:25:24;;;;;;;0.00;0.00;;;13.00;99.90;;;;;;6263773;22;20010;-73
2022/09/19 12:27:59;;;;;;;0.05;0.00;;;13.00;99.90;;;;;;6263775;22;20010;-73
2022/09/19 12:30:33;;;;;;;0.00;0.00;;;13.00;99.90;;;;;;6261064;22;20087;-73
2022/09/19 12:33:26;;;;;;;0.10;0.10;;;13.00;99.90;;;;;;6259357;22;20071;-74
2022/09/19 12:36:05;;;;;;;0.00;0.00;;;12.90;99.90;;;;;;6259583;22;20034;-74
2022/09/19 12:38:53;;;;;;;0.10;0.00;;;12.80;99.90;;;;;;6258467;22;20321;-73
2022/09/19 12:41:40;;;;;;;0.00;0.00;;;12.70;99.90;;;;;;6255991;22;20004;-73
2022/09/19 12:44:21;;;;;;;0.20;0.05;;;12.70;99.90;;;;;;6263714;22;20095;-74
2022/09/19 12:47:19;;;;;;;0.17;0.00;;;12.70;99.90;;;;;;6263756;22;20006;-74
2022/09/19 12:50:13;;;;;;;0.20;0.00;;;12.70;99.90;;;;;;6215970;22;20058;-73
2022/09/19 12:52:47;;;;;;;0.00;0.00;;;12.60;99.90;;;;;;6262937;22;20768;-73
2022/09/19 12:55:22;;;;;;;0.28;0.00;;;12.70;99.90;;;;;;6264503;22;20061;-73
2022/09/19 12:58:16;;;;;;;0.40;0.00;;;12.60;99.90;;;;;;6259332;22;20012;-73
2022/09/19 13:00:44;;;;;;;0.20;0.15;;;12.60;99.90;;;;;;6262547;22;20015;-74
2022/09/19 13:03:22;;;;;;;0.00;0.00;;;12.50;99.90;;;;;;6260874;22;20024;-72
2022/09/19 13:05:59;;;;;;;0.00;0.00;;;12.50;99.90;;;;;;6261185;22;20445;-72
2022/09/19 13:08:48;;;;;;;0.10;0.08;;;12.50;99.90;;;;;;6258866;22;20027;-72
2022/09/19 13:11:35;;;;;;;0.30;0.10;;;12.50;99.90;;;;;;6258297;22;20057;-74
2022/09/19 13:14:16;;;;;;;0.10;0.10;;;12.50;99.90;;;;;;6264269;22;20008;-74
2022/09/19 13:25:29;;;;;;;0.13;0.10;;;13.70;99.90;;;;;;6263303;22;20341;-72
2022/09/19 13:28:19;;;;;;;0.00;0.00;;;13.90;99.90;;;;;;6261692;22;20079;-72
2022/09/19 13:30:49;;;;;;;0.10;0.10;;;14.00;99.90;;;;;;6260216;22;20341;-73
2022/09/19 13:33:25;;;;;;;0.70;0.20;;;14.10;99.90;;;;;;6264238;22;20034;-72
2022/09/19 13:35:52;;;;;;;0.00;0.00;;;14.20;99.90;;;;;;6262344;22;20020;-71